Sumise Maru No.22 — JD3589 — position and weather

sailwx.info

Track history (hours):
 
Tides and Currents Weather Stations Pressure Air Temp Water Temp Dewpoint Dewpoint Depression Visibility Wind Speed Wind Dir Waves Ship Positions

Sumise Maru No.22

Last reported at 2017-Oct-19 21:33 UTC. Time now 2017-Oct-19 22:06 UTC.
Position N 34°06' E 134°59'.

Length 116 m; draft 7 m.

Type: Cargo ship. MMSI: 431005246.

Date/timePositionNaut miles runAvg speedWind from/ knotsBaromVisibWave heightAir tempDewpointWater temp
2017-Oct-19 21:33N 34°06' E 134°59'112.3
2017-Oct-19 21:29N 34°07' E 134°59'612.5
2017-Oct-19 21:00N 34°10' E 135°05'1 1.8
2017-Oct-19 20:26N 34°10' E 135°06'0 0.0
2017-Oct-19 19:59N 34°10' E 135°06'0 0.0
2017-Oct-19 19:29N 34°10' E 135°06'0 0.0
2017-Oct-19 18:56N 34°10' E 135°06'0 0.0
2017-Oct-19 18:29N 34°10' E 135°06'0 0.0
2017-Oct-19 17:59N 34°10' E 135°06'0 0.1
2017-Oct-19 17:29N 34°10' E 135°07'0 0.0
2017-Oct-19 16:59N 34°10' E 135°07'0 0.0
2017-Oct-19 16:29N 34°10' E 135°07'0 0.0
2017-Oct-19 15:59N 34°10' E 135°07'0 0.0
2017-Oct-19 15:30N 34°10' E 135°07'3 6.0
2017-Oct-19 15:00N 34°13' E 135°05'2 4.4
2017-Oct-19 14:30N 34°14' E 135°08'0 0.1
2017-Oct-19 14:00N 34°14' E 135°08'0 0.1
2017-Oct-19 13:27N 34°14' E 135°08'0 0.1
2017-Oct-19 12:57N 34°14' E 135°08'0 0.1
2017-Oct-19 12:27N 34°14' E 135°08'0 0.1
2017-Oct-19 12:00N 34°14' E 135°08'0 0.0
2017-Oct-19 11:27N 34°14' E 135°08'0 0.1
2017-Oct-19 10:59N 34°14' E 135°08'1 2.8
2017-Oct-19 10:30N 34°14' E 135°06'4 8.6
2017-Oct-19 09:59N 34°18' E 135°04'612.7
2017-Oct-19 09:30N 34°24' E 135°06'713.7
2017-Oct-19 09:01N 34°29' E 135°12'713.3
2017-Oct-19 08:30N 34°34' E 135°18'612.2
2017-Oct-19 08:00N 34°36' E 135°25'2 3.3
2017-Oct-19 07:20N 34°34' E 135°27'0 0.0
2017-Oct-19 06:26N 34°34' E 135°27'0 0.0
2017-Oct-19 05:26N 34°34' E 135°27'0 0.0
2017-Oct-19 04:56N 34°34' E 135°27'0 0.0
2017-Oct-19 04:14N 34°34' E 135°27'0 0.0
2017-Oct-19 03:38N 34°34' E 135°27'0 0.0
2017-Oct-19 03:26N 34°34' E 135°27'0 0.0
2017-Oct-19 02:56N 34°34' E 135°27'0 0.0
2017-Oct-19 02:26N 34°34' E 135°27'0 0.0
2017-Oct-19 01:50N 34°34' E 135°27'0 0.0
2017-Oct-19 01:26N 34°34' E 135°27'0 0.0
2017-Oct-19 00:56N 34°34' E 135°27'0 0.0
2017-Oct-19 00:26N 34°34' E 135°27'0 0.0
2017-Oct-18 23:59N 34°34' E 135°27'1 1.3
2017-Oct-18 23:30N 34°35' E 135°27'4 8.6
2017-Oct-18 23:00N 34°36' E 135°22'4 7.3
2017-Oct-18 22:30N 34°35' E 135°18'0 0.1
2017-Oct-18 21:48N 34°35' E 135°17'0 0.0
2017-Oct-18 21:30N 34°35' E 135°17'0 0.0
2017-Oct-18 20:48N 34°35' E 135°17'0 0.0
2017-Oct-18 20:24N 34°35' E 135°17'0 0.0
2017-Oct-18 20:00N 34°35' E 135°17'0 0.0
2017-Oct-18 19:24N 34°35' E 135°17'0 0.0
2017-Oct-18 18:54N 34°35' E 135°17'0 0.0
2017-Oct-18 17:36N 34°35' E 135°17'0 0.0
2017-Oct-18 17:30N 34°35' E 135°17'0 0.0
2017-Oct-18 17:00N 34°35' E 135°17'0 0.0
2017-Oct-18 16:30N 34°35' E 135°17'0 0.0
2017-Oct-18 16:00N 34°35' E 135°17'0 0.0
2017-Oct-18 15:18N 34°35' E 135°17'0 0.0
2017-Oct-18 14:54N 34°35' E 135°17'0 0.0
2017-Oct-18 14:00N 34°35' E 135°17'0 0.0
2017-Oct-18 13:30N 34°35' E 135°17'0 0.0
2017-Oct-18 13:00N 34°35' E 135°17'0 0.0
2017-Oct-18 12:30N 34°35' E 135°17'0 0.0
2017-Oct-18 12:00N 34°35' E 135°17'0 0.0
2017-Oct-18 11:24N 34°35' E 135°17'0 0.0
2017-Oct-18 11:00N 34°35' E 135°17'0 0.0
2017-Oct-18 10:30N 34°35' E 135°17'0 0.1
2017-Oct-18 10:00N 34°35' E 135°17'0 0.9
2017-Oct-18 09:30N 34°35' E 135°17'510.4
2017-Oct-18 09:00N 34°30' E 135°14'612.1
2017-Oct-18 08:29N 34°25' E 135°10'612.6
2017-Oct-18 07:59N 34°20' E 135°05'611.7
2017-Oct-18 07:30N 34°15' E 135°05'3 5.4
2017-Oct-18 07:00N 34°14' E 135°08'0 0.0
2017-Oct-18 06:28N 34°14' E 135°08'0 0.1
2017-Oct-18 05:55N 34°14' E 135°08'0 0.1
2017-Oct-18 05:28N 34°14' E 135°08'0 0.1
2017-Oct-18 04:58N 34°14' E 135°08'0 0.0
2017-Oct-18 04:28N 34°14' E 135°08'0 0.0
2017-Oct-18 04:00N 34°14' E 135°08'1 1.9
2017-Oct-18 03:30N 34°14' E 135°07'1 2.0
2017-Oct-18 02:56N 34°13' E 135°06'0 0.0
2017-Oct-18 02:29N 34°13' E 135°06'0 0.0
2017-Oct-18 01:59N 34°13' E 135°06'0 0.0
2017-Oct-18 01:29N 34°13' E 135°06'0 0.0
2017-Oct-18 00:59N 34°13' E 135°06'0 0.0
2017-Oct-18 00:29N 34°13' E 135°06'0 0.1
2017-Oct-17 23:53N 34°13' E 135°06'0 0.0
2017-Oct-17 23:29N 34°13' E 135°06'0 0.5
2017-Oct-17 23:01N 34°14' E 135°06'4 8.2
2017-Oct-17 22:30N 34°14' E 135°01'1010.8
2017-Oct-17 21:35N 34°24' E 135°00'312.7
2017-Oct-17 21:20N 34°27' E 135°01'412.0
2017-Oct-17 21:00N 34°31' E 135°02'510.1
2017-Oct-17 20:30N 34°36' E 135°03'5 9.7
2017-Oct-17 19:59N 34°36' E 134°56'710.3
2017-Oct-17 19:18N 34°38' E 134°48'6 0.1
2017-Oct-15 15:40N 34°41' E 134°41'213.1
2017-Oct-15 15:30N 34°40' E 134°44'612.4
2017-Oct-15 15:00N 34°38' E 134°51'1110.6
2017-Oct-15 14:00N 34°36' E 135°03'510.5
2017-Oct-15 13:30N 34°31' E 135°04'712.8
2017-Oct-15 12:59N 34°24' E 135°02'811.9
2017-Oct-15 12:16N 34°16' E 134°59'412.4
2017-Oct-15 11:59N 34°13' E 134°59'612.6
2017-Oct-15 11:29N 34°06' E 134°59'22811.4
2017-Oct-14 15:26N 34°58' E 139°29'612.7
2017-Oct-14 14:58N 35°02' E 139°35'613.7
2017-Oct-14 14:30N 35°06' E 139°41'714.1
2017-Oct-14 14:00N 35°12' E 139°46'612.3
2017-Oct-14 13:30N 35°18' E 139°44'612.7
2017-Oct-14 13:01N 35°24' E 139°43'713.9
2017-Oct-14 12:31N 35°28' E 139°50'713.9
2017-Oct-14 12:00N 35°33' E 139°56'5 0.4
2017-Oct-13 23:32N 35°29' E 139°53'012.1
2017-Oct-13 23:30N 35°29' E 139°52'612.5
2017-Oct-13 23:00N 35°25' E 139°47'612.8
2017-Oct-13 22:30N 35°19' E 139°44'612.3
2017-Oct-13 22:00N 35°13' E 139°47'612.2
2017-Oct-13 21:30N 35°07' E 139°45'611.9
2017-Oct-13 21:00N 35°02' E 139°42'612.3
2017-Oct-13 20:30N 34°58' E 139°35'713.4
2017-Oct-13 19:59N 34°55' E 139°28'22710.7
2017-Oct-12 22:42N 34°02' E 135°00'313.9
2017-Oct-12 22:29N 34°05' E 135°01'613.5
2017-Oct-12 22:00N 34°11' E 135°03'4 8.8
2017-Oct-12 21:31N 34°14' E 135°08'0 0.2
2017-Oct-12 20:55N 34°14' E 135°08'0 0.1
2017-Oct-12 20:25N 34°14' E 135°08'0 0.0
2017-Oct-12 19:55N 34°14' E 135°08'0 0.0
2017-Oct-12 19:28N 34°14' E 135°08'0 0.0
2017-Oct-12 18:55N 34°14' E 135°08'0 0.0
2017-Oct-12 18:25N 34°14' E 135°08'0 0.0
2017-Oct-12 17:58N 34°14' E 135°08'0 0.0
2017-Oct-12 17:28N 34°14' E 135°08'0 0.1
2017-Oct-12 16:52N 34°14' E 135°08'0 0.1
2017-Oct-12 16:28N 34°14' E 135°08'0 0.0
2017-Oct-12 15:58N 34°14' E 135°08'0 0.1
2017-Oct-12 15:28N 34°14' E 135°08'0 0.0
2017-Oct-12 14:58N 34°14' E 135°08'0 0.0
2017-Oct-12 14:30N 34°14' E 135°08'1 1.6
2017-Oct-12 14:00N 34°14' E 135°07'10 9.1
2017-Oct-12 12:55N 34°22' E 134°60'614.1
2017-Oct-12 12:30N 34°28' E 135°01'714.0
2017-Oct-12 12:00N 34°35' E 135°03'612.3
2017-Oct-12 11:30N 34°37' E 134°56'14 1.2
2017-Oct-12 00:09N 34°41' E 134°40'213.5
2017-Oct-12 00:01N 34°40' E 134°42'713.6
2017-Oct-11 23:30N 34°38' E 134°50'610.7
2017-Oct-11 22:56N 34°37' E 134°58'410.3
2017-Oct-11 22:31N 34°37' E 135°03'5 9.8
2017-Oct-11 21:59N 34°32' E 135°06'613.3
2017-Oct-11 21:31N 34°26' E 135°03'713.1
2017-Oct-11 21:00N 34°20' E 135°01'611.4
2017-Oct-11 20:30N 34°14' E 134°59'612.6
2017-Oct-11 20:00N 34°08' E 134°59'  
Track history (hours):
 
Tides and Currents Weather Stations Pressure Air Temp Water Temp Dewpoint Dewpoint Depression Visibility Wind Speed Wind Dir Waves Ship Positions

Sumise Maru No.22

Last reported at 2017-Oct-19 21:33 UTC. Time now 2017-Oct-19 22:06 UTC.
Position N 34°06' E 134°59'.

Length 116 m; draft 7 m.

Type: Cargo ship. MMSI: 431005246.

Date/timePositionNaut miles runAvg speedWind from/ knotsBaromVisibWave heightAir tempDewpointWater temp
2017-Oct-19 21:33N 34°06' E 134°59'112.3
2017-Oct-19 21:29N 34°07' E 134°59'612.5
2017-Oct-19 21:00N 34°10' E 135°05'1 1.8
2017-Oct-19 20:26N 34°10' E 135°06'0 0.0
2017-Oct-19 19:59N 34°10' E 135°06'0 0.0
2017-Oct-19 19:29N 34°10' E 135°06'0 0.0
2017-Oct-19 18:56N 34°10' E 135°06'0 0.0
2017-Oct-19 18:29N 34°10' E 135°06'0 0.0
2017-Oct-19 17:59N 34°10' E 135°06'0 0.1
2017-Oct-19 17:29N 34°10' E 135°07'0 0.0
2017-Oct-19 16:59N 34°10' E 135°07'0 0.0
2017-Oct-19 16:29N 34°10' E 135°07'0 0.0
2017-Oct-19 15:59N 34°10' E 135°07'0 0.0
2017-Oct-19 15:30N 34°10' E 135°07'3 6.0
2017-Oct-19 15:00N 34°13' E 135°05'2 4.4
2017-Oct-19 14:30N 34°14' E 135°08'0 0.1
2017-Oct-19 14:00N 34°14' E 135°08'0 0.1
2017-Oct-19 13:27N 34°14' E 135°08'0 0.1
2017-Oct-19 12:57N 34°14' E 135°08'0 0.1
2017-Oct-19 12:27N 34°14' E 135°08'0 0.1
2017-Oct-19 12:00N 34°14' E 135°08'0 0.0
2017-Oct-19 11:27N 34°14' E 135°08'0 0.1
2017-Oct-19 10:59N 34°14' E 135°08'1 2.8
2017-Oct-19 10:30N 34°14' E 135°06'4 8.6
2017-Oct-19 09:59N 34°18' E 135°04'612.7
2017-Oct-19 09:30N 34°24' E 135°06'713.7
2017-Oct-19 09:01N 34°29' E 135°12'713.3
2017-Oct-19 08:30N 34°34' E 135°18'612.2
2017-Oct-19 08:00N 34°36' E 135°25'2 3.3
2017-Oct-19 07:20N 34°34' E 135°27'0 0.0
2017-Oct-19 06:26N 34°34' E 135°27'0 0.0
2017-Oct-19 05:26N 34°34' E 135°27'0 0.0
2017-Oct-19 04:56N 34°34' E 135°27'0 0.0
2017-Oct-19 04:14N 34°34' E 135°27'0 0.0
2017-Oct-19 03:38N 34°34' E 135°27'0 0.0
2017-Oct-19 03:26N 34°34' E 135°27'0 0.0
2017-Oct-19 02:56N 34°34' E 135°27'0 0.0
2017-Oct-19 02:26N 34°34' E 135°27'0 0.0
2017-Oct-19 01:50N 34°34' E 135°27'0 0.0
2017-Oct-19 01:26N 34°34' E 135°27'0 0.0
2017-Oct-19 00:56N 34°34' E 135°27'0 0.0
2017-Oct-19 00:26N 34°34' E 135°27'0 0.0
2017-Oct-18 23:59N 34°34' E 135°27'1 1.3
2017-Oct-18 23:30N 34°35' E 135°27'4 8.6
2017-Oct-18 23:00N 34°36' E 135°22'4 7.3
2017-Oct-18 22:30N 34°35' E 135°18'0 0.1
2017-Oct-18 21:48N 34°35' E 135°17'0 0.0
2017-Oct-18 21:30N 34°35' E 135°17'0 0.0
2017-Oct-18 20:48N 34°35' E 135°17'0 0.0
2017-Oct-18 20:24N 34°35' E 135°17'0 0.0
2017-Oct-18 20:00N 34°35' E 135°17'0 0.0
2017-Oct-18 19:24N 34°35' E 135°17'0 0.0
2017-Oct-18 18:54N 34°35' E 135°17'0 0.0
2017-Oct-18 17:36N 34°35' E 135°17'0 0.0
2017-Oct-18 17:30N 34°35' E 135°17'0 0.0
2017-Oct-18 17:00N 34°35' E 135°17'0 0.0
2017-Oct-18 16:30N 34°35' E 135°17'0 0.0
2017-Oct-18 16:00N 34°35' E 135°17'0 0.0
2017-Oct-18 15:18N 34°35' E 135°17'0 0.0
2017-Oct-18 14:54N 34°35' E 135°17'0 0.0
2017-Oct-18 14:00N 34°35' E 135°17'0 0.0
2017-Oct-18 13:30N 34°35' E 135°17'0 0.0
2017-Oct-18 13:00N 34°35' E 135°17'0 0.0
2017-Oct-18 12:30N 34°35' E 135°17'0 0.0
2017-Oct-18 12:00N 34°35' E 135°17'0 0.0
2017-Oct-18 11:24N 34°35' E 135°17'0 0.0
2017-Oct-18 11:00N 34°35' E 135°17'0 0.0
2017-Oct-18 10:30N 34°35' E 135°17'0 0.1
2017-Oct-18 10:00N 34°35' E 135°17'0 0.9
2017-Oct-18 09:30N 34°35' E 135°17'510.4
2017-Oct-18 09:00N 34°30' E 135°14'612.1
2017-Oct-18 08:29N 34°25' E 135°10'612.6
2017-Oct-18 07:59N 34°20' E 135°05'611.7
2017-Oct-18 07:30N 34°15' E 135°05'3 5.4
2017-Oct-18 07:00N 34°14' E 135°08'0 0.0
2017-Oct-18 06:28N 34°14' E 135°08'0 0.1
2017-Oct-18 05:55N 34°14' E 135°08'0 0.1
2017-Oct-18 05:28N 34°14' E 135°08'0 0.1
2017-Oct-18 04:58N 34°14' E 135°08'0 0.0
2017-Oct-18 04:28N 34°14' E 135°08'0 0.0
2017-Oct-18 04:00N 34°14' E 135°08'1 1.9
2017-Oct-18 03:30N 34°14' E 135°07'1 2.0
2017-Oct-18 02:56N 34°13' E 135°06'0 0.0
2017-Oct-18 02:29N 34°13' E 135°06'0 0.0
2017-Oct-18 01:59N 34°13' E 135°06'0 0.0
2017-Oct-18 01:29N 34°13' E 135°06'0 0.0
2017-Oct-18 00:59N 34°13' E 135°06'0 0.0
2017-Oct-18 00:29N 34°13' E 135°06'0 0.1
2017-Oct-17 23:53N 34°13' E 135°06'0 0.0
2017-Oct-17 23:29N 34°13' E 135°06'0 0.5
2017-Oct-17 23:01N 34°14' E 135°06'4 8.2
2017-Oct-17 22:30N 34°14' E 135°01'1010.8
2017-Oct-17 21:35N 34°24' E 135°00'312.7
2017-Oct-17 21:20N 34°27' E 135°01'412.0
2017-Oct-17 21:00N 34°31' E 135°02'510.1
2017-Oct-17 20:30N 34°36' E 135°03'5 9.7
2017-Oct-17 19:59N 34°36' E 134°56'710.3
2017-Oct-17 19:18N 34°38' E 134°48'6 0.1
2017-Oct-15 15:40N 34°41' E 134°41'213.1
2017-Oct-15 15:30N 34°40' E 134°44'612.4
2017-Oct-15 15:00N 34°38' E 134°51'1110.6
2017-Oct-15 14:00N 34°36' E 135°03'510.5
2017-Oct-15 13:30N 34°31' E 135°04'712.8
2017-Oct-15 12:59N 34°24' E 135°02'811.9
2017-Oct-15 12:16N 34°16' E 134°59'412.4
2017-Oct-15 11:59N 34°13' E 134°59'612.6
2017-Oct-15 11:29N 34°06' E 134°59'22811.4
2017-Oct-14 15:26N 34°58' E 139°29'612.7
2017-Oct-14 14:58N 35°02' E 139°35'613.7
2017-Oct-14 14:30N 35°06' E 139°41'714.1
2017-Oct-14 14:00N 35°12' E 139°46'612.3
2017-Oct-14 13:30N 35°18' E 139°44'612.7
2017-Oct-14 13:01N 35°24' E 139°43'713.9
2017-Oct-14 12:31N 35°28' E 139°50'713.9
2017-Oct-14 12:00N 35°33' E 139°56'5 0.4
2017-Oct-13 23:32N 35°29' E 139°53'012.1
2017-Oct-13 23:30N 35°29' E 139°52'612.5
2017-Oct-13 23:00N 35°25' E 139°47'612.8
2017-Oct-13 22:30N 35°19' E 139°44'612.3
2017-Oct-13 22:00N 35°13' E 139°47'612.2
2017-Oct-13 21:30N 35°07' E 139°45'611.9
2017-Oct-13 21:00N 35°02' E 139°42'612.3
2017-Oct-13 20:30N 34°58' E 139°35'713.4
2017-Oct-13 19:59N 34°55' E 139°28'22710.7
2017-Oct-12 22:42N 34°02' E 135°00'313.9
2017-Oct-12 22:29N 34°05' E 135°01'613.5
2017-Oct-12 22:00N 34°11' E 135°03'4 8.8
2017-Oct-12 21:31N 34°14' E 135°08'0 0.2
2017-Oct-12 20:55N 34°14' E 135°08'0 0.1
2017-Oct-12 20:25N 34°14' E 135°08'0 0.0
2017-Oct-12 19:55N 34°14' E 135°08'0 0.0
2017-Oct-12 19:28N 34°14' E 135°08'0 0.0
2017-Oct-12 18:55N 34°14' E 135°08'0 0.0
2017-Oct-12 18:25N 34°14' E 135°08'0 0.0
2017-Oct-12 17:58N 34°14' E 135°08'0 0.0
2017-Oct-12 17:28N 34°14' E 135°08'0 0.1
2017-Oct-12 16:52N 34°14' E 135°08'0 0.1
2017-Oct-12 16:28N 34°14' E 135°08'0 0.0
2017-Oct-12 15:58N 34°14' E 135°08'0 0.1
2017-Oct-12 15:28N 34°14' E 135°08'0 0.0
2017-Oct-12 14:58N 34°14' E 135°08'0 0.0
2017-Oct-12 14:30N 34°14' E 135°08'1 1.6
2017-Oct-12 14:00N 34°14' E 135°07'10 9.1
2017-Oct-12 12:55N 34°22' E 134°60'614.1
2017-Oct-12 12:30N 34°28' E 135°01'714.0
2017-Oct-12 12:00N 34°35' E 135°03'612.3
2017-Oct-12 11:30N 34°37' E 134°56'14 1.2
2017-Oct-12 00:09N 34°41' E 134°40'213.5
2017-Oct-12 00:01N 34°40' E 134°42'713.6
2017-Oct-11 23:30N 34°38' E 134°50'610.7
2017-Oct-11 22:56N 34°37' E 134°58'410.3
2017-Oct-11 22:31N 34°37' E 135°03'5 9.8
2017-Oct-11 21:59N 34°32' E 135°06'613.3
2017-Oct-11 21:31N 34°26' E 135°03'713.1
2017-Oct-11 21:00N 34°20' E 135°01'611.4
2017-Oct-11 20:30N 34°14' E 134°59'612.6
2017-Oct-11 20:00N 34°08' E 134°59'  

Dump ship's entire track history